createdAt,value
2023-05-14T00:04:24.151Z,101322.25
2023-05-14T00:09:30.528Z,101326.24
2023-05-14T00:14:35.981Z,101325.89
2023-05-14T00:19:42.032Z,101325.55
2023-05-14T00:24:47.461Z,101327.96
2023-05-14T00:29:52.912Z,101333.50
2023-05-14T00:34:59.710Z,101332.98
2023-05-14T00:40:08.461Z,101335.42
2023-05-14T00:45:14.209Z,101325.88
2023-05-14T00:50:20.136Z,101323.29
2023-05-14T00:55:26.212Z,101325.88
2023-05-14T01:00:31.731Z,101330.20
2023-05-14T01:05:47.003Z,101334.71
2023-05-14T01:10:57.575Z,101332.29
2023-05-14T01:16:04.445Z,101325.89
2023-05-14T01:21:35.432Z,101314.47
2023-05-14T01:26:40.855Z,101318.09
2023-05-14T01:31:48.992Z,101319.81
2023-05-14T01:36:56.209Z,101315.67
2023-05-14T01:42:04.254Z,101314.29
2023-05-14T01:47:09.719Z,101305.63
2023-05-14T01:52:15.198Z,101303.89
2023-05-14T01:57:21.449Z,101303.35
2023-05-14T02:02:26.881Z,101299.34
2023-05-14T02:07:33.333Z,101296.70
2023-05-14T02:12:39.920Z,101300.30
2023-05-14T02:17:45.564Z,101301.00
2023-05-14T02:22:51.559Z,101301.84
2023-05-14T02:27:56.875Z,101298.70
2023-05-14T02:33:02.383Z,101302.98
2023-05-14T02:38:08.063Z,101298.08
2023-05-14T02:43:13.405Z,101296.03
2023-05-14T02:48:18.741Z,101295.52
2023-05-14T02:53:24.618Z,101296.20
2023-05-14T02:58:30.300Z,101290.34
2023-05-14T03:03:36.015Z,101290.30
2023-05-14T03:08:41.950Z,101291.46
2023-05-14T03:13:47.332Z,101288.70
2023-05-14T03:18:52.973Z,101295.10
2023-05-14T03:23:58.674Z,101297.02
2023-05-14T03:29:03.988Z,101294.98
2023-05-14T03:34:09.696Z,101293.81
2023-05-14T03:39:19.629Z,101291.92
2023-05-14T03:44:25.164Z,101282.48
2023-05-14T03:49:31.586Z,101285.99
2023-05-14T03:54:38.558Z,101287.27
2023-05-14T03:59:44.330Z,101286.25
2023-05-14T04:04:50.873Z,101280.20
2023-05-14T04:10:01.144Z,101275.68
2023-05-14T04:15:10.819Z,101272.77
2023-05-14T04:20:16.317Z,101272.69
2023-05-14T04:25:22.165Z,101263.47
2023-05-14T04:30:27.603Z,101260.70
2023-05-14T04:35:33.026Z,101254.04
2023-05-14T04:40:38.414Z,101258.59
2023-05-14T04:45:43.936Z,101254.80
2023-05-14T04:50:49.633Z,101254.90
2023-05-14T04:55:55.094Z,101256.60
2023-05-14T05:01:01.726Z,101258.89
2023-05-14T05:06:07.784Z,101250.55
2023-05-14T05:11:13.473Z,101251.27
2023-05-14T05:16:18.852Z,101252.92
2023-05-14T05:21:25.023Z,101246.13
2023-05-14T05:26:30.419Z,101243.77
2023-05-14T05:31:36.729Z,101241.96
2023-05-14T05:36:42.272Z,101241.85
2023-05-14T05:41:47.807Z,101238.30
2023-05-14T05:46:53.509Z,101243.40
2023-05-14T05:51:59.262Z,101243.63
2023-05-14T05:57:05.337Z,101244.35
2023-05-14T06:02:10.839Z,101242.70
2023-05-14T06:07:16.533Z,101242.38
2023-05-14T06:12:22.028Z,101238.61
2023-05-14T06:17:27.490Z,101235.54
2023-05-14T06:22:33.126Z,101232.85
2023-05-14T06:27:38.511Z,101229.98
2023-05-14T06:32:44.166Z,101230.23
2023-05-14T06:37:53.520Z,101232.05
2023-05-14T06:42:59.008Z,101233.64
2023-05-14T06:50:25.034Z,101232.16
2023-05-14T06:55:29.565Z,101225.81
2023-05-14T07:00:35.636Z,101224.77
2023-05-14T07:05:41.418Z,101223.67
2023-05-14T07:10:47.372Z,101220.96
2023-05-14T07:15:55.701Z,101214.64
2023-05-14T07:21:01.357Z,101213.02
2023-05-14T07:26:09.633Z,101209.89
2023-05-14T07:31:22.372Z,101209.42
2023-05-14T07:36:38.052Z,101206.60
2023-05-14T07:41:50.316Z,101202.27
2023-05-14T07:46:56.377Z,101200.40
2023-05-14T07:52:02.038Z,101194.19
2023-05-14T07:57:07.927Z,101191.44
2023-05-14T08:02:16.075Z,101188.70
2023-05-14T08:07:21.823Z,101183.81
2023-05-14T08:12:29.700Z,101177.65
2023-05-14T08:17:35.597Z,101177.21
2023-05-14T08:22:41.362Z,101170.38
2023-05-14T08:27:46.966Z,101159.60
2023-05-14T08:32:53.109Z,101156.67
2023-05-14T08:37:58.761Z,101158.27
2023-05-14T08:43:05.957Z,101150.33
2023-05-14T08:48:16.642Z,101142.52
2023-05-14T08:53:22.638Z,101139.15
2023-05-14T08:58:30.980Z,101144.73
2023-05-14T09:03:38.705Z,101142.28
2023-05-14T09:08:44.565Z,101139.42
2023-05-14T09:13:50.524Z,101129.00
2023-05-14T09:18:56.562Z,101135.27
2023-05-14T09:24:02.537Z,101131.20
2023-05-14T09:29:08.605Z,101130.11
2023-05-14T09:34:28.483Z,101134.71
2023-05-14T09:39:36.465Z,101128.33
2023-05-14T09:44:42.113Z,101128.48
2023-05-14T09:49:50.816Z,101126.89
2023-05-14T09:54:57.098Z,101117.04
2023-05-14T10:00:02.931Z,101113.45
2023-05-14T10:05:13.149Z,101111.45
2023-05-14T10:10:27.390Z,101104.20
2023-05-14T10:15:37.664Z,101098.62
2023-05-14T10:20:44.181Z,101093.33
2023-05-14T10:25:50.231Z,101088.80
2023-05-14T10:30:56.051Z,101094.05
2023-05-14T10:36:05.682Z,101084.78
2023-05-14T10:41:15.737Z,101080.29
2023-05-14T10:46:22.779Z,101066.55
2023-05-14T10:51:30.281Z,101065.16
2023-05-14T10:56:37.923Z,101056.82
2023-05-14T11:01:44.908Z,101047.43
2023-05-14T11:06:52.019Z,101042.13
2023-05-14T11:11:57.552Z,101043.09
2023-05-14T11:17:03.795Z,101031.69
2023-05-14T11:22:09.442Z,101015.28
2023-05-14T11:27:15.288Z,101014.69
2023-05-14T11:32:21.851Z,101014.19
2023-05-14T11:37:27.511Z,101004.45
2023-05-14T11:42:33.110Z,100978.43
2023-05-14T11:47:38.909Z,100985.13
2023-05-14T11:52:44.463Z,100986.05
2023-05-14T11:57:51.246Z,100978.06
2023-05-14T12:02:56.950Z,100954.30
2023-05-14T12:08:02.615Z,100940.66
2023-05-14T12:13:08.243Z,100940.39
2023-05-14T12:18:24.205Z,100928.98
2023-05-14T12:23:33.267Z,100917.48
2023-05-14T12:28:43.485Z,100919.16
2023-05-14T12:33:49.227Z,100913.90
2023-05-14T12:39:06.516Z,100910.70
2023-05-14T12:44:13.114Z,100914.90
2023-05-14T12:49:19.683Z,100902.30
2023-05-14T12:54:25.721Z,100903.67
2023-05-14T12:59:31.433Z,100894.11
2023-05-14T13:04:37.511Z,100885.27
2023-05-14T13:09:43.044Z,100885.95
2023-05-14T13:14:48.953Z,100874.44
2023-05-14T13:19:54.356Z,100870.96
2023-05-14T13:24:59.934Z,100869.05
2023-05-14T13:30:06.646Z,100861.45
2023-05-14T13:35:13.744Z,100864.63
2023-05-14T13:40:19.400Z,100848.28
2023-05-14T13:45:25.779Z,100844.43
2023-05-14T13:50:31.345Z,100845.38
2023-05-14T13:55:37.263Z,100836.70
2023-05-14T14:00:43.093Z,100836.48
2023-05-14T14:05:48.763Z,100830.42
2023-05-14T14:10:55.703Z,100821.12
2023-05-14T14:16:03.337Z,100813.02
2023-05-14T14:21:09.232Z,100804.73
2023-05-14T14:26:14.976Z,100803.77
2023-05-14T14:31:22.053Z,100805.81
2023-05-14T14:36:28.951Z,100795.66
2023-05-14T14:41:35.021Z,100784.94
2023-05-14T14:46:40.334Z,100774.90
2023-05-14T14:51:46.977Z,100777.71
2023-05-14T14:56:53.492Z,100776.23
2023-05-14T15:01:59.216Z,100775.53
2023-05-14T15:07:06.342Z,100778.56
2023-05-14T15:12:12.599Z,100766.58
2023-05-14T15:17:18.015Z,100759.92
2023-05-14T15:22:23.794Z,100755.25
2023-05-14T15:27:29.579Z,100752.41
2023-05-14T15:32:35.856Z,100750.85
2023-05-14T15:37:42.716Z,100751.38
2023-05-14T15:42:48.289Z,100737.30
2023-05-14T15:47:53.918Z,100732.02
2023-05-14T15:52:59.952Z,100726.96
2023-05-14T15:58:06.151Z,100729.20
2023-05-14T16:03:12.411Z,100728.19
2023-05-14T16:08:18.261Z,100720.97
2023-05-14T16:13:24.225Z,100714.09
2023-05-14T16:18:29.821Z,100703.13
2023-05-14T16:23:35.575Z,100701.73
2023-05-14T16:28:42.714Z,100705.88
2023-05-14T16:33:48.236Z,100710.23
2023-05-14T16:39:06.896Z,100707.00
2023-05-14T16:44:13.492Z,100684.14
2023-05-14T16:49:22.371Z,100685.33
2023-05-14T16:54:27.993Z,100689.84
2023-05-14T16:59:33.583Z,100692.26
2023-05-14T17:04:42.079Z,100681.84
2023-05-14T17:09:47.739Z,100683.83
2023-05-14T17:14:53.196Z,100674.02
2023-05-14T17:20:00.626Z,100674.92
2023-05-14T17:25:08.643Z,100666.26
2023-05-14T17:30:14.728Z,100666.08
2023-05-14T17:35:20.123Z,100665.02
2023-05-14T17:40:26.215Z,100670.67
2023-05-14T17:45:39.352Z,100673.84
2023-05-14T17:50:52.272Z,100669.05
2023-05-14T17:55:58.014Z,100670.36
2023-05-14T18:01:03.697Z,100667.27
2023-05-14T18:06:09.670Z,100672.27
2023-05-14T18:11:15.290Z,100667.38
2023-05-14T18:16:21.012Z,100669.91
2023-05-14T18:21:26.728Z,100670.76
2023-05-14T18:26:34.211Z,100672.13
2023-05-14T18:31:40.376Z,100671.30
2023-05-14T18:36:46.071Z,100671.95
2023-05-14T18:41:54.085Z,100674.98
2023-05-14T18:47:03.201Z,100674.60
2023-05-14T18:52:09.338Z,100671.85
2023-05-14T18:57:15.031Z,100672.56
2023-05-14T19:02:20.736Z,100677.05
2023-05-14T19:07:27.726Z,100673.91
2023-05-14T19:12:33.642Z,100668.45
2023-05-14T19:17:39.626Z,100668.21
2023-05-14T19:22:46.164Z,100661.58
2023-05-14T19:27:53.692Z,100654.39
2023-05-14T19:32:59.631Z,100652.19
2023-05-14T19:38:05.605Z,100650.66
2023-05-14T19:43:11.926Z,100650.54
2023-05-14T19:48:19.235Z,100649.17
2023-05-14T19:53:30.072Z,100642.45
2023-05-14T19:58:35.859Z,100641.54
2023-05-14T20:03:45.953Z,100638.29
2023-05-14T20:08:55.229Z,100638.67
2023-05-14T20:14:00.664Z,100634.43
2023-05-14T20:19:06.498Z,100626.39
2023-05-14T20:24:12.063Z,100621.90
2023-05-14T20:29:17.721Z,100622.66
2023-05-14T20:34:23.232Z,100624.21
2023-05-14T20:39:32.410Z,100620.30
2023-05-14T20:44:37.828Z,100613.53
2023-05-14T20:49:43.288Z,100608.05
2023-05-14T20:54:49.187Z,100598.01
2023-05-14T20:59:54.730Z,100592.56
2023-05-14T21:05:00.686Z,100586.58
2023-05-14T21:10:08.253Z,100578.15
2023-05-14T21:15:14.316Z,100572.37
2023-05-14T21:20:19.769Z,100567.80
2023-05-14T21:25:25.835Z,100562.14
2023-05-14T21:30:32.236Z,100557.90
2023-05-14T21:35:37.911Z,100557.49
2023-05-14T21:40:43.261Z,100554.92
2023-05-14T21:45:48.891Z,100555.34
2023-05-14T21:50:54.334Z,100549.17
2023-05-14T21:55:59.725Z,100543.50
2023-05-14T22:01:05.836Z,100539.97
2023-05-14T22:06:11.856Z,100535.08
2023-05-14T22:11:17.967Z,100532.69
2023-05-14T22:16:23.702Z,100526.69
2023-05-14T22:21:29.851Z,100524.69
2023-05-14T22:26:36.040Z,100518.17
2023-05-14T22:31:41.570Z,100515.27
2023-05-14T22:36:47.184Z,100509.64
2023-05-14T22:41:55.240Z,100499.23
2023-05-14T22:47:01.264Z,100496.60
2023-05-14T22:52:07.778Z,100490.36
2023-05-14T22:57:13.478Z,100482.20
2023-05-14T23:02:19.547Z,100478.72
2023-05-14T23:07:25.983Z,100467.71
2023-05-14T23:12:31.688Z,100462.52
2023-05-14T23:17:37.425Z,100452.97
2023-05-14T23:22:43.136Z,100454.20
2023-05-14T23:27:50.035Z,100446.54
2023-05-14T23:32:56.167Z,100439.93
2023-05-14T23:38:02.172Z,100430.73
2023-05-14T23:43:08.015Z,100421.89
2023-05-14T23:48:13.865Z,100418.64
2023-05-14T23:53:19.507Z,100410.18
2023-05-14T23:58:25.359Z,100406.83
